Time;durP1;ratioP1;P1;durP2;ratioP2;P2;SDS_P1;SDS_P2;PMS_P1;PMS_P2;Temp;Humidity;BMP_temperature;BMP_pressure;BME280_temperature;BME280_humidity;BME280_pressure;Samples;Min_cycle;Max_cycle;Signal;HPM_P1;HPM_P2
2022/01/04 00:00:21;;;;;;;1.75;0.80;;;10.90;60.40;;;9.37;65.03;99925.97;8401314;28;20127;-88
2022/01/04 00:04:42;;;;;;;2.72;1.33;;;10.90;60.50;;;9.47;65.12;99950.50;8415421;28;20040;-88
2022/01/04 00:09:05;;;;;;;1.67;0.88;;;10.90;60.50;;;9.39;64.95;99933.69;8397555;28;20034;-88
2022/01/04 00:13:27;;;;;;;1.45;0.88;;;10.80;60.50;;;9.44;65.08;99942.88;8413700;28;20054;-89
2022/01/04 00:17:48;;;;;;;1.20;0.85;;;10.70;60.40;;;9.41;65.43;99930.03;8405932;28;20043;-88
2022/01/04 00:22:10;;;;;;;2.42;0.70;;;10.80;60.50;;;9.32;65.01;99899.38;8419694;28;20127;-88
2022/01/04 00:26:32;;;;;;;3.30;0.98;;;10.80;60.60;;;9.21;65.30;99881.81;8397785;28;20123;-88
2022/01/04 00:30:54;;;;;;;1.67;0.80;;;10.80;60.70;;;9.34;65.43;99905.31;8401563;28;20507;-88
2022/01/04 00:35:15;;;;;;;4.03;1.13;;;10.80;60.70;;;9.33;64.88;99889.78;8416675;28;20504;-88
2022/01/04 00:39:37;;;;;;;1.48;0.80;;;10.70;60.70;;;9.29;65.39;99896.97;8415089;28;20127;-88
2022/01/04 00:43:59;;;;;;;0.63;0.60;;;10.70;60.80;;;9.30;64.89;99904.66;8395170;28;20515;-89
2022/01/04 00:52:42;;;;;;;1.15;0.57;;;10.70;60.90;;;9.07;65.30;99846.22;8414101;28;20119;-88
2022/01/04 00:57:04;;;;;;;0.82;0.70;;;10.70;61.00;;;9.13;65.16;99858.03;8401754;28;20119;-88
2022/01/04 01:01:26;;;;;;;0.90;0.75;;;10.70;61.10;;;9.25;65.34;99872.03;8415678;28;20118;-88
2022/01/04 01:05:48;;;;;;;0.90;0.57;;;10.70;61.10;;;8.98;65.30;99818.16;8414566;28;20042;-88
2022/01/04 01:10:36;;;;;;;0.93;0.70;;;10.70;61.20;;;9.23;65.29;99840.03;8421557;28;20504;-88
2022/01/04 01:14:58;;;;;;;1.05;0.60;;;10.70;61.20;;;9.25;65.14;99839.00;8399286;28;20122;-89
2022/01/04 01:19:20;;;;;;;0.88;0.70;;;10.70;61.10;;;9.21;65.10;99834.94;8399018;28;20135;-87
2022/01/04 01:23:42;;;;;;;0.95;0.70;;;10.70;61.00;;;9.22;65.37;99831.38;8412243;28;20426;-89
2022/01/04 01:28:04;;;;;;;0.65;0.50;;;10.70;61.10;;;9.30;65.33;99830.88;8406799;28;20123;-88
2022/01/04 01:32:26;;;;;;;0.80;0.60;;;10.70;61.10;;;9.24;65.26;99816.50;8399238;28;20123;-88
2022/01/04 01:36:48;;;;;;;0.65;0.57;;;10.70;61.00;;;9.28;65.59;99814.50;8392696;28;20142;-88
2022/01/04 01:41:09;;;;;;;1.17;0.75;;;10.70;61.00;;;9.21;65.16;99801.06;8405944;28;20118;-88
2022/01/04 01:45:31;;;;;;;1.20;0.70;;;10.70;61.10;;;9.14;65.43;99780.72;8406261;28;20046;-88
2022/01/04 01:49:53;;;;;;;1.50;1.08;;;10.80;61.10;;;9.22;65.19;99787.09;8419192;28;20118;-88
2022/01/04 01:54:15;;;;;;;1.77;0.70;;;10.80;61.10;;;9.03;65.40;99740.56;8404509;28;20131;-88
2022/01/04 01:58:37;;;;;;;1.02;0.73;;;10.80;61.10;;;9.27;65.22;99766.78;8407249;28;20123;-89
2022/01/04 02:03:00;;;;;;;0.88;0.70;;;10.70;61.00;;;9.21;65.57;99763.75;8394399;28;20044;-88
2022/01/04 02:07:23;;;;;;;0.75;0.63;;;10.80;61.10;;;9.03;65.43;99740.56;8412708;28;20126;-88
2022/01/04 02:11:45;;;;;;;1.48;0.60;;;10.70;61.10;;;9.25;65.43;99767.81;8415641;28;20559;-88
2022/01/04 02:16:11;;;;;;;0.60;0.60;;;10.70;61.10;;;9.16;65.72;99745.00;8393958;28;20120;-88
2022/01/04 02:20:32;;;;;;;0.60;0.60;;;10.70;61.10;;;9.25;65.27;99750.41;8403576;28;20042;-87
2022/01/04 02:24:54;;;;;;;0.60;0.60;;;10.70;61.10;;;9.14;65.73;99728.63;8426400;28;20039;-87
2022/01/04 02:29:16;;;;;;;1.48;0.52;;;10.60;61.00;;;9.09;65.59;99719.31;8405706;28;20463;-88
2022/01/04 02:33:38;;;;;;;0.60;0.60;;;10.60;61.00;;;9.09;64.97;99714.13;8393827;28;20043;-88
2022/01/04 02:38:01;;;;;;;0.43;0.43;;;10.60;61.20;;;9.12;65.30;99707.03;8408413;28;20108;-89
2022/01/04 02:42:23;;;;;;;0.80;0.60;;;10.40;61.10;;;9.18;65.63;99717.91;8402718;28;20155;-88
2022/01/04 02:46:45;;;;;;;0.50;0.50;;;10.70;61.40;;;9.02;65.23;99681.63;8385167;28;20036;-88
2022/01/04 02:51:07;;;;;;;0.65;0.65;;;10.60;61.30;;;9.14;65.49;99700.81;8399364;28;20131;-88
2022/01/04 02:55:29;;;;;;;1.00;0.63;;;10.60;61.40;;;9.10;65.53;99683.72;8396882;28;20552;-88
2022/01/04 02:59:50;;;;;;;1.30;0.65;;;10.70;61.50;;;9.11;65.20;99680.19;8410265;28;20130;-88
2022/01/04 03:04:12;;;;;;;0.85;0.70;;;10.50;61.30;;;9.09;65.65;99672.44;8401565;28;20493;-88
2022/01/04 03:08:34;;;;;;;1.20;0.80;;;10.60;61.40;;;9.03;65.59;99654.63;8411445;28;20159;-88
2022/01/04 03:12:57;;;;;;;1.02;0.55;;;10.60;61.40;;;9.17;65.74;99669.34;8424134;28;20028;-88
2022/01/04 03:17:18;;;;;;;0.50;0.47;;;10.70;61.40;;;9.11;65.20;99671.53;8411008;28;20038;-88
2022/01/04 03:21:43;;;;;;;0.70;0.70;;;10.60;61.30;;;9.09;65.67;99667.25;8394013;28;20035;-88
2022/01/04 03:26:05;;;;;;;1.05;0.68;;;10.60;61.30;;;9.07;65.37;99655.25;8396363;28;20032;-88
2022/01/04 03:30:26;;;;;;;0.70;0.70;;;10.60;61.20;;;9.05;65.66;99647.56;8405842;28;20036;-88
2022/01/04 03:34:49;;;;;;;0.77;0.75;;;10.60;61.20;;;8.91;65.27;99611.19;8403308;28;20142;-88
2022/01/04 03:39:12;;;;;;;0.55;0.55;;;10.60;61.20;;;9.02;65.58;99633.91;8381195;28;20681;-87
2022/01/04 03:43:37;;;;;;;0.60;0.60;;;10.40;61.10;;;8.95;65.64;99620.47;8374095;28;20036;-88
2022/01/04 03:47:58;;;;;;;1.20;0.70;;;10.50;61.20;;;9.01;65.16;99630.47;8409334;28;20640;-88
2022/01/04 03:52:20;;;;;;;0.70;0.70;;;10.30;61.00;;;8.96;65.45;99629.09;8410370;28;20035;-88
2022/01/04 03:56:42;;;;;;;0.50;0.50;;;10.50;61.20;;;8.95;65.77;99615.25;8413996;28;20118;-88
2022/01/04 04:01:04;;;;;;;0.50;0.50;;;10.50;61.30;;;8.91;65.30;99602.53;8397910;28;20534;-87
2022/01/04 04:05:25;;;;;;;0.70;0.55;;;10.30;61.20;;;8.92;65.44;99599.84;8411865;28;20051;-88
2022/01/04 04:09:47;;;;;;;0.50;0.50;;;10.50;61.50;;;9.01;65.19;99614.84;8387400;28;20032;-88
2022/01/04 04:14:09;;;;;;;1.20;0.60;;;10.50;61.50;;;8.92;65.38;99586.00;8412635;28;20496;-91
2022/01/04 04:18:31;;;;;;;0.50;0.50;;;10.40;61.40;;;8.92;65.47;99578.19;8425658;28;20042;-91
2022/01/04 04:22:52;;;;;;;0.50;0.50;;;10.50;61.50;;;9.00;65.53;99588.91;8410427;28;20123;-89
2022/01/04 04:27:14;;;;;;;0.52;0.50;;;10.50;61.50;;;9.00;65.93;99591.53;8400029;28;20131;-89
2022/01/04 04:31:36;;;;;;;0.80;0.75;;;10.50;61.50;;;8.79;65.48;99550.34;8408140;28;20568;-89
2022/01/04 04:35:58;;;;;;;0.70;0.70;;;10.40;61.30;;;8.92;65.81;99575.56;8404010;28;20119;-89
2022/01/04 04:40:20;;;;;;;1.52;0.52;;;10.50;61.40;;;8.89;65.94;99565.38;8401240;28;20581;-89
2022/01/04 04:44:43;;;;;;;0.80;0.80;;;10.50;61.50;;;8.81;65.37;99539.84;8409441;28;20163;-90
2022/01/04 04:49:05;;;;;;;1.92;0.68;;;10.40;61.30;;;8.86;65.55;99553.41;8414584;28;20118;-90
2022/01/04 04:53:27;;;;;;;0.80;0.80;;;10.40;61.30;;;8.91;65.79;99564.34;8401492;28;20581;-89
2022/01/04 04:57:49;;;;;;;1.38;0.80;;;10.40;61.30;;;8.90;65.38;99559.22;8422830;28;20091;-89
2022/01/04 05:02:10;;;;;;;1.25;0.77;;;10.40;61.40;;;8.82;65.50;99533.69;8398883;28;20123;-89
2022/01/04 05:06:32;;;;;;;1.40;0.90;;;10.20;61.20;;;8.78;65.55;99522.66;8431008;28;20024;-89
2022/01/04 05:10:54;;;;;;;0.77;0.77;;;10.30;61.30;;;8.86;65.41;99535.16;8395622;28;20477;-89
2022/01/04 05:15:16;;;;;;;1.40;1.30;;;10.40;61.40;;;8.74;65.89;99502.16;8413718;28;20046;-89
2022/01/04 05:19:37;;;;;;;1.27;1.17;;;10.30;61.40;;;8.67;65.80;99499.13;8406393;28;20119;-90
2022/01/04 05:23:59;;;;;;;1.95;1.13;;;10.40;61.40;;;8.76;65.26;99505.47;8404171;28;20032;-90
2022/01/04 05:28:21;;;;;;;1.23;1.13;;;10.30;61.30;;;8.75;65.51;99485.59;8413239;28;20122;-89
2022/01/04 05:32:43;;;;;;;1.35;1.00;;;10.30;61.30;;;8.81;65.37;99490.41;8407480;28;20122;-89
2022/01/04 05:37:04;;;;;;;0.85;0.82;;;10.30;61.20;;;8.68;65.58;99484.34;8415595;28;20115;-89
2022/01/04 05:41:26;;;;;;;0.73;0.73;;;10.20;61.10;;;8.63;65.53;99469.03;8413751;28;20123;-89
2022/01/04 05:45:48;;;;;;;0.68;0.68;;;10.20;61.20;;;8.64;65.63;99478.50;8407872;28;20119;-90
2022/01/04 05:50:10;;;;;;;0.75;0.75;;;10.20;61.20;;;8.65;65.81;99464.56;8413954;28;20123;-89
2022/01/04 05:54:32;;;;;;;0.80;0.80;;;10.20;61.30;;;8.62;65.59;99462.19;8419037;28;20126;-90
2022/01/04 05:58:54;;;;;;;0.70;0.70;;;10.10;61.30;;;8.67;65.41;99473.09;8401329;28;20445;-89
2022/01/04 06:03:16;;;;;;;1.00;1.00;;;10.10;61.30;;;8.65;65.65;99456.75;8405024;28;20118;-89
2022/01/04 06:07:37;;;;;;;0.60;0.60;;;10.10;61.30;;;8.47;65.52;99425.00;8419116;28;20130;-89
2022/01/04 06:12:02;;;;;;;1.17;1.10;;;10.10;61.40;;;8.61;65.49;99442.28;8420262;28;20115;-89
2022/01/04 06:16:23;;;;;;;0.90;0.90;;;10.10;61.30;;;8.39;65.39;99396.91;8428001;28;20131;-89
2022/01/04 06:20:45;;;;;;;0.70;0.70;;;10.00;61.30;;;8.40;65.70;99403.78;8409898;28;20123;-89
2022/01/04 06:25:11;;;;;;;1.27;0.98;;;10.00;61.30;;;8.55;65.57;99417.50;8420884;28;20042;-89
2022/01/04 06:29:33;;;;;;;;;;;10.00;61.30;;;8.45;65.64;99398.25;8389185;28;20123;-89
2022/01/04 06:33:55;;;;;;;0.60;0.60;;;10.00;61.40;;;8.43;65.69;99396.72;8398328;28;19999;-89
2022/01/04 06:38:19;;;;;;;0.80;0.80;;;10.00;61.20;;;8.48;65.49;99407.63;8403161;28;20730;-89
2022/01/04 06:42:41;;;;;;;0.77;0.77;;;9.90;61.30;;;8.32;65.59;99376.59;8424182;28;20119;-89
2022/01/04 06:47:03;;;;;;;1.20;0.90;;;10.00;61.50;;;8.38;65.71;99390.00;8411667;28;20032;-89
2022/01/04 06:51:25;;;;;;;1.25;0.90;;;9.90;61.50;;;8.47;65.76;99398.97;8403845;28;20578;-89
2022/01/04 06:55:50;;;;;;;1.30;0.95;;;9.70;61.30;;;8.31;65.64;99357.53;8410472;28;20042;-89
2022/01/04 07:00:13;;;;;;;1.83;1.00;;;9.90;61.50;;;8.38;65.72;99356.19;8416267;28;20471;-89
2022/01/04 07:04:34;;;;;;;1.65;1.08;;;9.90;61.70;;;8.33;65.89;99344.44;8408472;28;20123;-89
2022/01/04 07:08:56;;;;;;;3.08;1.40;;;9.90;61.90;;;8.28;65.64;99341.31;8434153;28;20118;-89
2022/01/04 07:13:18;;;;;;;1.50;1.25;;;9.90;61.90;;;8.40;65.64;99371.75;8421210;28;20118;-89
2022/01/04 07:17:41;;;;;;;1.83;1.10;;;9.80;61.90;;;8.34;65.75;99357.31;8410143;28;20147;-89
2022/01/04 07:22:04;;;;;;;1.75;1.13;;;9.90;61.90;;;8.38;65.61;99361.41;8403520;28;20043;-89
2022/01/04 07:26:26;;;;;;;1.60;1.10;;;9.90;62.00;;;8.40;65.98;99372.56;8394383;28;20042;-89
2022/01/04 07:30:47;;;;;;;0.95;0.95;;;9.90;62.10;;;8.29;65.73;99361.19;8403520;28;20028;-89
2022/01/04 07:35:09;;;;;;;4.05;1.23;;;9.90;62.20;;;8.41;65.89;99374.22;8389904;28;20044;-89
2022/01/04 07:39:31;;;;;;;1.10;1.00;;;10.00;62.40;;;8.37;65.82;99351.94;8401621;28;20394;-89
2022/01/04 07:43:53;;;;;;;1.00;0.90;;;9.80;62.20;;;8.52;65.76;99357.88;8398796;28;20040;-88
2022/01/04 07:48:15;;;;;;;0.95;0.90;;;9.90;62.40;;;8.46;65.95;99339.28;8388542;28;20032;-89
2022/01/04 07:52:37;;;;;;;1.30;1.20;;;10.00;62.50;;;8.49;66.34;99349.47;8406186;28;20035;-88
2022/01/04 07:56:58;;;;;;;1.00;1.00;;;10.00;62.50;;;8.50;66.09;99335.50;8385152;28;20028;-89
2022/01/04 08:01:20;;;;;;;1.40;1.13;;;10.10;62.50;;;8.51;65.86;99342.41;8408572;28;20139;-88
2022/01/04 08:05:44;;;;;;;1.38;0.85;;;9.90;62.30;;;8.59;66.16;99334.88;8392267;28;20054;-89
2022/01/04 08:10:07;;;;;;;1.42;1.20;;;10.10;62.50;;;8.58;65.98;99328.81;8399397;28;20032;-89
2022/01/04 08:14:29;;;;;;;0.82;0.82;;;10.10;62.50;;;8.57;66.28;99318.53;8386884;28;20036;-90
2022/01/04 08:18:50;;;;;;;1.00;1.00;;;10.10;62.50;;;8.67;66.21;99336.94;8381119;28;20035;-88
2022/01/04 08:23:12;;;;;;;1.13;1.00;;;10.20;62.60;;;8.60;66.23;99313.13;8417924;28;20043;-88
2022/01/04 08:27:34;;;;;;;1.77;1.50;;;10.20;62.60;;;8.68;66.17;99316.03;8387467;28;20699;-88
2022/01/04 08:31:58;;;;;;;1.75;1.60;;;10.20;62.60;;;8.66;66.11;99302.28;8405717;28;20400;-84
2022/01/04 08:36:26;;;;;;;1.30;1.20;;;10.20;62.60;;;8.41;66.30;99256.34;8390560;28;20046;-85
2022/01/04 08:40:48;;;;;;;1.60;1.17;;;10.10;62.70;;;8.64;66.05;99292.00;8406029;28;20378;-85
2022/01/04 08:45:10;;;;;;;1.17;1.08;;;10.20;62.60;;;8.59;66.06;99270.66;8401276;28;20052;-85
2022/01/04 08:49:32;;;;;;;2.05;1.10;;;10.30;62.70;;;8.68;66.03;99271.78;8403669;28;20035;-85
2022/01/04 08:53:53;;;;;;;1.42;1.00;;;10.30;62.90;;;8.78;65.92;99287.59;8389821;28;20032;-84
2022/01/04 08:58:15;;;;;;;1.38;1.00;;;10.30;63.00;;;8.75;66.13;99279.97;8392111;28;20039;-84
2022/01/04 09:02:37;;;;;;;0.80;0.80;;;10.40;63.10;;;8.86;66.27;99285.28;8410683;28;20035;-84
2022/01/04 09:07:00;;;;;;;1.00;0.82;;;10.30;63.10;;;8.80;66.33;99278.72;8398511;28;20036;-85
2022/01/04 09:11:23;;;;;;;1.70;1.10;;;10.40;63.30;;;8.93;66.17;99283.88;8408030;28;20031;-84
2022/01/04 09:15:56;;;;;;;0.90;0.90;;;10.40;63.30;;;8.72;66.46;99236.81;8392065;28;20031;-84
2022/01/04 09:20:18;;;;;;;1.80;1.10;;;10.40;63.40;;;8.89;66.21;99250.38;8390450;28;20040;-84
2022/01/04 09:24:39;;;;;;;1.10;1.00;;;10.50;63.50;;;8.89;66.26;99243.41;8378310;28;20396;-84
2022/01/04 09:29:03;;;;;;;1.80;1.25;;;10.40;63.50;;;9.02;66.10;99257.19;8393453;28;20038;-84
2022/01/04 09:33:25;;;;;;;1.23;1.13;;;10.50;63.70;;;8.95;66.37;99248.16;8398361;28;20033;-84
2022/01/04 09:37:46;;;;;;;1.15;1.13;;;10.60;64.00;;;8.94;66.64;99227.41;8390195;28;20040;-85
2022/01/04 09:42:08;;;;;;;1.55;1.20;;;10.60;63.90;;;9.08;66.22;99233.31;8410684;28;20043;-84
2022/01/04 09:46:30;;;;;;;2.63;1.30;;;10.60;63.70;;;9.12;66.81;99239.09;8404798;28;20515;-84
2022/01/04 09:50:57;;;;;;;1.20;1.10;;;10.70;63.80;;;9.11;66.90;99221.00;8395222;28;20028;-84
2022/01/04 09:55:18;;;;;;;1.08;1.08;;;10.70;63.80;;;9.06;66.49;99206.53;8384894;28;20491;-84
2022/01/04 09:59:40;;;;;;;1.67;1.20;;;10.70;63.70;;;9.29;66.55;99220.47;8409106;28;20032;-84
2022/01/04 10:04:03;;;;;;;1.02;1.02;;;10.70;63.70;;;9.25;66.32;99215.59;8413367;28;20040;-84
2022/01/04 10:08:25;;;;;;;1.00;1.00;;;10.80;63.70;;;9.29;66.67;99204.03;8409345;28;20039;-84
2022/01/04 10:13:03;;;;;;;1.00;0.90;;;10.70;63.70;;;9.21;66.34;99181.16;8420750;28;20037;-83
2022/01/04 10:17:29;;;;;;;1.00;1.00;;;10.90;63.90;;;9.26;66.83;99179.03;8402632;28;20027;-83
2022/01/04 10:22:18;;;;;;;1.27;1.00;;;10.90;63.70;;;9.29;67.06;99157.97;8408733;28;20031;-88
2022/01/04 10:26:40;;;;;;;1.50;1.40;;;10.90;63.90;;;9.38;66.67;99164.25;8385369;28;20032;-87
2022/01/04 10:31:16;;;;;;;1.40;1.30;;;11.00;63.80;;;9.34;66.75;99144.56;8396734;28;20439;-86
2022/01/04 10:35:52;;;;;;;2.05;1.73;;;11.00;63.80;;;9.47;66.42;99153.13;8388437;28;20031;-85
2022/01/04 10:40:15;;;;;;;1.52;1.42;;;11.00;63.90;;;9.40;66.73;99130.28;8395909;28;20043;-82
2022/01/04 10:44:37;;;;;;;1.08;1.05;;;11.00;64.10;;;9.52;66.68;99137.16;8411939;28;20697;-85
2022/01/04 10:49:00;;;;;;;1.75;1.10;;;10.90;63.60;;;9.45;66.68;99118.56;8411399;28;20032;-84
2022/01/04 10:53:28;;;;;;;0.82;0.82;;;11.10;63.80;;;9.57;66.70;99126.38;8408438;28;20112;-84
2022/01/04 10:57:49;;;;;;;1.00;0.82;;;11.10;64.00;;;9.58;66.56;99121.03;8399489;28;20127;-85
2022/01/04 11:02:11;;;;;;;0.80;0.80;;;11.10;63.90;;;9.56;66.64;99117.75;8391930;28;20132;-84
2022/01/04 11:06:38;;;;;;;1.00;1.00;;;11.10;64.00;;;9.56;66.67;99120.34;8402535;28;20040;-85
2022/01/04 11:10:59;;;;;;;0.73;0.73;;;11.10;64.10;;;9.59;67.08;99121.88;8403340;28;20119;-84
2022/01/04 11:15:21;;;;;;;0.85;0.85;;;11.20;64.10;;;9.54;66.79;99109.19;8406844;28;20122;-86
2022/01/04 11:19:43;;;;;;;2.03;1.02;;;11.20;64.10;;;9.67;66.63;99132.56;8417482;28;20127;-84
2022/01/04 11:24:08;;;;;;;0.98;0.98;;;11.20;64.10;;;9.58;66.66;99118.44;8428833;28;20119;-84
2022/01/04 11:28:29;;;;;;;0.90;0.90;;;11.20;64.10;;;9.61;66.97;99105.16;8401476;28;20036;-85
2022/01/04 11:32:59;;;;;;;1.10;1.05;;;11.20;64.00;;;9.65;67.18;99093.56;8413391;28;20046;-85
2022/01/04 11:37:22;;;;;;;1.63;1.42;;;11.30;64.10;;;9.71;66.59;99095.69;8419301;28;20035;-84
2022/01/04 11:41:44;;;;;;;0.88;0.88;;;11.30;64.10;;;9.66;66.42;99076.13;8416716;28;20040;-85
2022/01/04 11:46:06;;;;;;;0.82;0.82;;;11.30;64.10;;;9.65;66.93;99059.69;8436405;28;20404;-83
2022/01/04 11:50:36;;;;;;;1.10;1.00;;;11.30;64.10;;;9.66;66.41;99048.28;8420610;28;20119;-83
2022/01/04 11:55:34;;;;;;;0.88;0.88;;;11.30;64.20;;;9.73;66.70;99057.31;8419623;28;20119;-85
2022/01/04 12:00:02;;;;;;;1.33;1.23;;;11.30;64.30;;;9.75;66.53;99044.97;8399393;28;20043;-85
2022/01/04 12:04:52;;;;;;;1.10;1.00;;;11.30;64.10;;;9.69;67.15;99022.03;8428933;28;20215;-85
2022/01/04 12:09:29;;;;;;;5.97;1.25;;;11.30;64.20;;;9.65;67.18;99004.13;8426230;28;20046;-85
2022/01/04 12:14:03;;;;;;;1.10;0.95;;;11.40;64.30;;;9.70;66.98;98995.00;8412020;28;20407;-85
2022/01/04 12:18:36;;;;;;;1.00;0.90;;;11.40;64.20;;;9.86;66.43;98993.78;8408988;28;20036;-86
2022/01/04 12:22:58;;;;;;;1.45;1.35;;;11.40;64.20;;;9.87;66.69;98967.56;8417567;28;20122;-86
2022/01/04 12:27:19;;;;;;;1.33;1.23;;;11.40;64.20;;;9.86;66.61;98962.50;8405770;28;20446;-87
2022/01/04 12:31:48;;;;;;;1.90;1.20;;;11.40;64.30;;;9.90;66.84;98985.56;8421947;28;20119;-87
2022/01/04 12:36:23;;;;;;;0.90;0.90;;;11.40;64.40;;;9.92;66.50;98981.06;8392294;28;20488;-87
2022/01/04 12:40:52;;;;;;;2.15;1.00;;;11.50;64.40;;;9.88;66.80;98965.78;8426716;28;20572;-87
2022/01/04 12:45:14;;;;;;;1.15;1.05;;;11.30;64.30;;;9.84;66.76;98953.97;8412575;28;20046;-86
2022/01/04 12:49:37;;;;;;;1.63;1.30;;;11.50;64.30;;;9.90;67.06;98958.66;8426420;28;20126;-85
2022/01/04 12:54:03;;;;;;;1.30;1.20;;;11.40;64.20;;;9.93;66.80;98971.47;8412824;28;20457;-86
2022/01/04 12:58:25;;;;;;;0.80;0.80;;;11.40;64.20;;;10.00;66.92;98962.19;8404132;28;20132;-87
2022/01/04 13:02:47;;;;;;;1.08;0.90;;;11.40;64.20;;;9.89;66.97;98952.63;8417910;28;20448;-87
2022/01/04 13:07:22;;;;;;;0.80;0.80;;;11.50;64.20;;;9.71;66.67;98921.06;8418791;28;20044;-87
2022/01/04 13:11:55;;;;;;;1.73;1.63;;;11.50;64.30;;;9.97;66.64;98968.50;8407181;28;20493;-87
2022/01/04 13:16:25;;;;;;;1.40;1.20;;;11.50;64.20;;;9.91;66.87;98940.31;8422253;28;20130;-88
2022/01/04 13:20:47;;;;;;;1.23;1.15;;;11.50;64.20;;;10.02;66.46;98952.47;8423412;28;20122;-87
2022/01/04 13:25:11;;;;;;;1.48;1.38;;;11.50;64.10;;;9.96;66.66;98943.38;8398997;28;20052;-87
2022/01/04 13:29:32;;;;;;;1.38;1.27;;;11.50;64.20;;;9.97;66.64;98952.03;8418924;28;20118;-87
2022/01/04 13:33:56;;;;;;;1.13;1.08;;;11.40;64.10;;;9.93;67.32;98961.84;8403723;28;20119;-87
2022/01/04 13:38:21;;;;;;;1.35;1.23;;;11.50;64.30;;;9.95;66.84;98954.75;8419597;28;20497;-86
2022/01/04 13:42:47;;;;;;;1.67;1.52;;;11.60;64.30;;;10.05;66.88;98962.66;8410462;28;20036;-87
2022/01/04 13:47:13;;;;;;;1.48;1.38;;;11.50;64.30;;;10.02;66.97;98969.88;8387810;28;20047;-86
2022/01/04 13:51:36;;;;;;;1.52;1.40;;;11.50;64.30;;;9.94;66.61;98947.06;8412238;28;20123;-87
2022/01/04 13:56:09;;;;;;;1.48;1.38;;;11.50;64.30;;;9.93;66.76;98937.56;8408933;28;20119;-87
2022/01/04 14:00:33;;;;;;;1.63;1.52;;;11.40;64.40;;;9.99;66.96;98950.13;8429342;28;20126;-87
2022/01/04 14:05:17;;;;;;;1.92;1.75;;;11.50;64.40;;;10.00;67.24;98949.16;8429136;28;20567;-87
2022/01/04 14:09:45;;;;;;;1.83;1.65;;;11.50;64.50;;;9.88;67.30;98922.31;8440887;28;20114;-87
2022/01/04 14:14:16;;;;;;;2.42;1.42;;;11.50;64.50;;;9.91;67.13;98940.31;8419802;28;20114;-87
2022/01/04 14:19:22;;;;;;;1.60;1.50;;;11.50;64.50;;;9.98;66.85;98967.53;8426403;28;20118;-87
2022/01/04 14:23:44;;;;;;;1.58;1.30;;;11.50;64.60;;;9.97;66.94;98965.88;8393742;28;20476;-87
2022/01/04 14:28:05;;;;;;;1.60;1.50;;;11.50;64.50;;;9.94;66.93;98975.75;8424182;28;20035;-87
2022/01/04 14:32:30;;;;;;;2.20;1.90;;;11.40;64.50;;;9.84;66.81;98939.16;8419152;28;20115;-87
2022/01/04 14:36:52;;;;;;;2.75;2.03;;;11.40;64.60;;;9.94;66.66;98932.25;8432793;28;20127;-88
2022/01/04 14:41:14;;;;;;;2.40;2.20;;;11.40;64.50;;;10.01;67.14;98952.59;8391416;28;20036;-87
2022/01/04 14:45:36;;;;;;;1.77;1.67;;;11.40;64.50;;;9.94;66.89;98944.44;8401105;28;20366;-87
2022/01/04 14:49:58;;;;;;;2.42;2.22;;;11.50;64.60;;;9.86;67.08;98919.00;8395140;28;20612;-88
2022/01/04 14:54:20;;;;;;;1.83;1.73;;;11.40;64.50;;;10.02;66.92;98947.25;8406828;28;20032;-86
2022/01/04 14:58:45;;;;;;;2.75;2.55;;;11.50;64.60;;;9.99;66.95;98937.09;8406821;28;20127;-85
2022/01/04 15:03:06;;;;;;;3.05;2.75;;;11.40;64.70;;;10.05;67.30;98930.53;8416118;28;20039;-85
2022/01/04 15:07:28;;;;;;;3.00;2.35;;;11.50;64.80;;;9.93;66.60;98921.91;8440137;28;20050;-89
2022/01/04 15:11:50;;;;;;;3.15;2.95;;;11.50;64.60;;;9.94;66.63;98924.41;8398359;28;20389;-85
2022/01/04 15:16:12;;;;;;;3.92;3.30;;;11.50;64.50;;;10.04;66.83;98940.13;8424768;28;20123;-84
2022/01/04 15:20:35;;;;;;;4.53;3.63;;;11.60;64.60;;;10.02;67.13;98930.75;8392031;28;20556;-84
2022/01/04 15:24:56;;;;;;;3.95;3.55;;;11.50;64.50;;;10.02;66.52;98944.66;8395812;28;20032;-84
2022/01/04 15:29:18;;;;;;;3.35;3.05;;;11.60;64.50;;;10.02;66.66;98944.66;8407257;28;20135;-84
2022/01/04 15:33:40;;;;;;;6.22;3.03;;;11.60;64.50;;;9.95;67.35;98940.88;8390172;28;20119;-84
2022/01/04 15:38:03;;;;;;;5.55;4.43;;;11.50;64.40;;;10.04;67.35;98941.91;8406668;28;20099;-84
2022/01/04 15:42:27;;;;;;;10.77;6.35;;;11.60;64.50;;;10.10;67.04;98954.44;8405518;28;20503;-84
2022/01/04 15:46:50;;;;;;;7.20;4.72;;;11.50;64.30;;;10.05;67.52;98956.63;8385010;28;20043;-84
2022/01/04 15:51:14;;;;;;;4.28;3.10;;;11.60;64.30;;;9.98;67.18;98961.50;8407069;28;20119;-84
2022/01/04 15:55:35;;;;;;;3.67;2.97;;;11.60;64.40;;;9.97;67.33;98959.84;8404088;28;20135;-85
2022/01/04 15:59:57;;;;;;;2.72;2.50;;;11.50;64.30;;;9.87;66.88;98946.72;8399853;28;20039;-82
2022/01/04 16:04:19;;;;;;;2.78;2.47;;;11.60;65.20;;;10.00;67.17;98966.59;8412437;28;20046;-84
2022/01/04 16:08:41;;;;;;;2.28;2.08;;;11.50;64.30;;;9.97;67.17;98965.06;8410116;28;20032;-85
2022/01/04 16:13:03;;;;;;;2.10;1.90;;;11.40;64.20;;;9.95;66.50;98967.78;8411758;28;20111;-85
2022/01/04 16:22:06;;;;;;;1.85;1.75;;;11.50;64.30;;;9.96;67.18;98985.09;8407434;28;20118;-88
2022/01/04 16:26:27;;;;;;;2.13;1.92;;;11.40;64.30;;;9.81;66.68;98965.47;8407772;28;20396;-83
2022/01/04 16:30:49;;;;;;;2.50;2.25;;;11.40;64.30;;;9.69;67.12;98945.59;8392438;28;20540;-89
2022/01/04 16:35:15;;;;;;;2.30;2.10;;;11.30;64.20;;;9.92;66.91;98982.84;8399014;28;20119;-88
2022/01/04 16:39:36;;;;;;;2.58;2.38;;;11.40;64.30;;;9.82;67.22;98958.47;8382638;28;20050;-87
2022/01/04 16:44:04;;;;;;;2.28;2.08;;;11.30;64.30;;;9.88;66.99;98976.22;8412496;28;20036;-88
2022/01/04 16:48:26;;;;;;;2.47;2.28;;;11.40;64.40;;;9.85;66.84;98971.25;8401658;28;20115;-88
2022/01/04 16:52:48;;;;;;;2.35;2.15;;;11.30;64.40;;;9.68;67.02;98941.34;8410166;28;20111;-90
2022/01/04 16:57:11;;;;;;;2.65;2.45;;;11.30;64.30;;;9.83;66.92;98978.34;8419022;28;20395;-87
2022/01/04 17:01:33;;;;;;;2.42;2.22;;;11.30;64.40;;;9.80;66.76;98974.22;8401857;28;20034;-88
2022/01/04 17:05:55;;;;;;;2.38;2.17;;;11.20;64.40;;;9.64;67.08;98953.78;8405725;28;20036;-90
2022/01/04 17:10:16;;;;;;;2.78;2.58;;;11.20;64.30;;;9.74;66.82;98978.16;8378704;28;20040;-88
2022/01/04 17:19:19;;;;;;;2.15;1.95;;;11.20;65.00;;;9.73;67.00;98988.72;8385007;28;20044;-92
2022/01/04 17:23:43;;;;;;;2.70;2.50;;;11.20;64.30;;;9.59;67.12;98965.53;8394587;28;20042;-91
2022/01/04 17:28:04;;;;;;;3.22;2.58;;;11.10;64.20;;;9.64;66.55;98985.06;8399223;28;20568;-91
2022/01/04 17:32:28;;;;;;;3.45;3.08;;;11.10;64.20;;;9.56;66.70;98968.34;8391503;28;20428;-91
2022/01/04 17:36:51;;;;;;;2.80;2.40;;;11.10;64.20;;;9.53;67.21;98964.22;8413134;28;20038;-92
2022/01/04 17:41:12;;;;;;;3.30;2.85;;;11.10;64.20;;;9.55;67.33;98979.75;8408686;28;20039;-92
2022/01/04 17:45:34;;;;;;;4.05;3.33;;;11.00;64.10;;;9.60;66.82;98991.44;8392377;28;20139;-91
2022/01/04 17:49:59;;;;;;;2.78;2.58;;;11.00;64.10;;;9.51;66.91;98976.56;8393011;28;20115;-90
2022/01/04 17:54:20;;;;;;;4.88;3.55;;;11.00;64.10;;;9.52;66.74;98978.19;8396563;28;20043;-90
2022/01/04 17:58:42;;;;;;;3.58;3.25;;;11.00;64.10;;;9.52;66.69;98979.03;8392289;28;20528;-92
2022/01/04 18:03:07;;;;;;;4.35;3.10;;;11.00;64.00;;;9.51;66.95;98989.59;8389008;28;20336;-92
2022/01/04 18:07:28;;;;;;;4.00;3.20;;;10.90;63.90;;;9.33;66.99;98986.63;8389091;28;20040;-92
2022/01/04 18:11:50;;;;;;;3.85;3.33;;;10.80;63.90;;;9.45;66.82;99008.28;8395870;28;20036;-91
2022/01/04 18:16:12;;;;;;;3.97;2.92;;;10.80;64.10;;;9.35;66.86;98991.75;8406650;28;20776;-92
2022/01/04 18:20:34;;;;;;;3.92;3.30;;;10.90;64.10;;;9.45;66.66;99009.13;8394965;28;20131;-91
2022/01/04 18:24:55;;;;;;;3.85;3.28;;;10.80;64.10;;;9.29;66.85;98990.44;8399990;28;20552;-91
2022/01/04 18:29:17;;;;;;;4.90;3.25;;;10.90;64.20;;;9.43;66.97;99023.22;8410256;28;20036;-91
2022/01/04 18:33:39;;;;;;;4.22;3.85;;;10.80;64.10;;;9.33;67.04;99017.91;8389949;28;20058;-92
2022/01/04 18:38:01;;;;;;;5.25;3.15;;;10.70;64.00;;;9.27;66.63;99016.59;8405812;28;20576;-92
2022/01/04 18:42:23;;;;;;;4.57;3.10;;;10.80;64.20;;;9.36;66.73;99045.47;8413679;28;20103;-92
2022/01/04 18:46:46;;;;;;;6.05;3.95;;;10.80;64.20;;;9.21;66.66;99037.91;8415632;28;20138;-90
2022/01/04 18:51:08;;;;;;;3.63;3.13;;;10.70;64.20;;;9.13;66.80;99029.00;8380968;28;20040;-90